createdAt,value
2019-01-10T00:00:03.202Z,1.000000
2019-01-10T00:02:33.526Z,1.100000
2019-01-10T00:05:03.831Z,1.100000
2019-01-10T00:07:34.126Z,1.200000
2019-01-10T00:10:04.475Z,1.200000
2019-01-10T00:12:39.359Z,1.000000
2019-01-10T00:15:10.160Z,1.000000
2019-01-10T00:17:40.459Z,0.800000
2019-01-10T00:20:15.722Z,0.800000
2019-01-10T00:22:46.085Z,1.000000
2019-01-10T00:25:16.387Z,1.000000
2019-01-10T00:27:46.920Z,1.000000
2019-01-10T00:30:17.376Z,1.100000
2019-01-10T00:32:47.771Z,1.100000
2019-01-10T00:35:18.191Z,1.400000
2019-01-10T00:37:48.498Z,1.400000
2019-01-10T00:40:18.792Z,1.000000
2019-01-10T00:42:49.959Z,1.000000
2019-01-10T00:45:20.398Z,1.100000
2019-01-10T00:47:50.722Z,1.100000
2019-01-10T00:50:21.144Z,1.100000
2019-01-10T00:52:51.356Z,1.100000
2019-01-10T00:55:21.700Z,1.100000
2019-01-10T00:57:52.099Z,1.100000
2019-01-10T01:00:22.419Z,0.800000
2019-01-10T01:02:52.743Z,0.800000
2019-01-10T01:05:23.057Z,0.800000
2019-01-10T01:07:53.364Z,0.800000
2019-01-10T01:10:23.678Z,1.100000
2019-01-10T01:12:58.644Z,1.100000
2019-01-10T01:15:29.243Z,0.800000
2019-01-10T01:17:59.587Z,0.800000
2019-01-10T01:20:29.887Z,0.900000
2019-01-10T01:23:00.184Z,0.900000
2019-01-10T01:25:30.468Z,1.100000
2019-01-10T01:28:00.791Z,1.100000
2019-01-10T01:30:31.004Z,0.500000
2019-01-10T01:33:01.311Z,0.500000
2019-01-10T01:35:31.616Z,0.800000
2019-01-10T01:38:01.926Z,0.800000
2019-01-10T01:40:32.128Z,0.900000
2019-01-10T01:43:07.260Z,0.900000
2019-01-10T01:45:38.101Z,0.900000
2019-01-10T01:48:08.514Z,0.900000
2019-01-10T01:50:38.917Z,1.100000
2019-01-10T01:53:09.224Z,1.100000
2019-01-10T01:55:39.545Z,0.900000
2019-01-10T01:58:09.869Z,0.900000
2019-01-10T02:00:40.196Z,0.800000
2019-01-10T02:03:10.580Z,0.800000
2019-01-10T02:05:40.888Z,0.700000
2019-01-10T02:08:11.208Z,0.700000
2019-01-10T02:10:41.525Z,0.700000
2019-01-10T02:13:16.606Z,0.700000
2019-01-10T02:15:47.351Z,0.700000
2019-01-10T02:18:17.743Z,0.700000
2019-01-10T02:20:48.049Z,0.800000
2019-01-10T02:23:18.346Z,0.800000
2019-01-10T02:25:48.659Z,0.900000
2019-01-10T02:28:18.954Z,0.900000
2019-01-10T02:30:49.478Z,1.100000
2019-01-10T02:33:19.759Z,1.100000
2019-01-10T02:35:49.980Z,0.700000
2019-01-10T02:38:20.290Z,0.700000
2019-01-10T02:40:50.601Z,0.700000
2019-01-10T02:43:26.347Z,0.700000
2019-01-10T02:45:57.231Z,0.800000
2019-01-10T02:48:27.589Z,0.800000
2019-01-10T02:50:58.048Z,1.000000
2019-01-10T02:53:28.448Z,1.000000
2019-01-10T02:55:58.775Z,0.900000
2019-01-10T02:58:29.003Z,0.900000
2019-01-10T03:00:59.323Z,0.800000
2019-01-10T03:03:29.782Z,0.800000
2019-01-10T03:06:05.191Z,0.900000
2019-01-10T03:08:35.585Z,0.900000
2019-01-10T03:11:05.997Z,0.800000
2019-01-10T03:13:41.199Z,0.800000
2019-01-10T03:16:11.511Z,0.600000
2019-01-10T03:18:41.919Z,0.600000
2019-01-10T03:21:12.331Z,0.800000
2019-01-10T03:23:42.652Z,0.800000
2019-01-10T03:26:13.073Z,1.000000
2019-01-10T03:28:43.377Z,1.000000
2019-01-10T03:31:13.617Z,0.800000
2019-01-10T03:33:44.248Z,0.800000
2019-01-10T03:36:19.717Z,0.900000
2019-01-10T03:38:50.032Z,0.900000
2019-01-10T03:41:20.420Z,0.700000
2019-01-10T03:43:50.730Z,0.700000
2019-01-10T03:46:21.150Z,0.800000
2019-01-10T03:48:51.448Z,0.800000
2019-01-10T03:51:21.766Z,1.000000
2019-01-10T03:53:52.094Z,1.000000
2019-01-10T03:56:22.334Z,0.600000
2019-01-10T03:58:52.687Z,0.600000
2019-01-10T04:01:23.021Z,0.700000
2019-01-10T04:03:53.377Z,0.700000
2019-01-10T04:06:23.718Z,0.800000
2019-01-10T04:08:54.141Z,0.800000
2019-01-10T04:11:24.509Z,0.900000
2019-01-10T04:13:57.508Z,0.900000
2019-01-10T04:16:28.216Z,1.000000
2019-01-10T04:18:58.550Z,1.000000
2019-01-10T04:21:28.948Z,1.000000
2019-01-10T04:23:59.320Z,1.000000
2019-01-10T04:26:29.651Z,0.800000
2019-01-10T04:28:59.902Z,0.800000
2019-01-10T04:31:30.249Z,0.800000
2019-01-10T04:34:00.825Z,0.800000
2019-01-10T04:36:31.141Z,0.800000
2019-01-10T04:39:01.503Z,0.900000
2019-01-10T04:41:31.849Z,0.900000
2019-01-10T04:44:07.133Z,0.600000
2019-01-10T04:46:37.831Z,0.600000
2019-01-10T04:49:08.182Z,0.800000
2019-01-10T04:51:38.409Z,0.800000
2019-01-10T04:54:08.889Z,0.800000
2019-01-10T04:56:39.259Z,0.800000
2019-01-10T04:59:11.952Z,0.700000
2019-01-10T05:01:42.655Z,0.700000
2019-01-10T05:04:13.020Z,0.800000
2019-01-10T05:06:43.362Z,0.800000
2019-01-10T05:09:13.717Z,0.700000
2019-01-10T05:11:44.144Z,0.700000
2019-01-10T05:14:16.592Z,0.700000
2019-01-10T05:16:47.366Z,0.700000
2019-01-10T05:19:17.927Z,0.900000
2019-01-10T05:21:53.269Z,0.900000
2019-01-10T05:24:23.583Z,0.700000
2019-01-10T05:26:53.932Z,0.700000
2019-01-10T05:29:24.256Z,0.700000
2019-01-10T05:31:54.792Z,0.700000
2019-01-10T05:34:25.159Z,0.400000
2019-01-10T05:36:55.437Z,0.400000
2019-01-10T05:39:25.665Z,0.700000
2019-01-10T05:41:56.025Z,0.700000
2019-01-10T05:44:27.064Z,0.700000
2019-01-10T05:46:57.622Z,0.700000
2019-01-10T05:49:27.956Z,0.800000
2019-01-10T05:51:58.333Z,0.800000
2019-01-10T05:54:28.673Z,0.500000
2019-01-10T05:56:59.172Z,0.500000
2019-01-10T05:59:29.484Z,0.700000
2019-01-10T06:02:04.803Z,0.700000
2019-01-10T06:04:35.125Z,1.000000
2019-01-10T06:07:05.549Z,1.000000
2019-01-10T06:09:35.890Z,1.100000
2019-01-10T06:12:06.330Z,1.100000
2019-01-10T06:14:36.680Z,0.900000
2019-01-10T06:17:07.039Z,0.900000
2019-01-10T06:19:37.469Z,0.800000
2019-01-10T06:22:07.836Z,0.800000
2019-01-10T06:24:38.190Z,0.600000
2019-01-10T06:27:08.548Z,0.600000
2019-01-10T06:29:38.896Z,1.100000
2019-01-10T06:32:09.251Z,1.100000
2019-01-10T06:34:39.624Z,0.900000
2019-01-10T06:37:10.155Z,0.900000
2019-01-10T06:39:40.473Z,0.800000
2019-01-10T06:42:10.947Z,0.800000
2019-01-10T06:44:44.625Z,0.800000
2019-01-10T06:47:15.320Z,0.800000
2019-01-10T06:49:45.691Z,0.800000
2019-01-10T06:52:16.030Z,0.800000
2019-01-10T06:54:56.268Z,1.200000
2019-01-10T06:57:27.120Z,1.200000
2019-01-10T06:59:57.451Z,0.900000
2019-01-10T07:02:27.798Z,0.900000
2019-01-10T07:04:58.232Z,0.700000
2019-01-10T07:07:28.475Z,0.700000
2019-01-10T07:09:58.843Z,0.900000
2019-01-10T07:12:29.225Z,0.900000
2019-01-10T07:14:59.552Z,0.800000
2019-01-10T07:17:29.916Z,0.800000
2019-01-10T07:20:00.339Z,0.700000
2019-01-10T07:22:30.722Z,0.700000
2019-01-10T07:25:01.051Z,0.800000
2019-01-10T07:27:31.554Z,0.800000
2019-01-10T07:30:01.848Z,1.300000
2019-01-10T07:32:32.212Z,1.300000
2019-01-10T07:35:02.635Z,0.700000
2019-01-10T07:37:32.997Z,0.700000
2019-01-10T07:40:08.378Z,0.800000
2019-01-10T07:42:43.808Z,0.800000
2019-01-10T07:45:14.081Z,0.700000
2019-01-10T07:47:44.351Z,0.700000
2019-01-10T07:50:14.696Z,0.800000
2019-01-10T07:52:45.113Z,0.800000
2019-01-10T07:55:15.568Z,0.800000
2019-01-10T07:57:46.028Z,0.800000
2019-01-10T08:00:16.404Z,1.000000
2019-01-10T08:02:46.847Z,1.000000
2019-01-10T08:05:17.215Z,0.700000
2019-01-10T08:07:47.594Z,0.700000
2019-01-10T08:10:17.920Z,0.900000
2019-01-10T08:12:48.404Z,0.900000
2019-01-10T08:15:18.730Z,1.000000
2019-01-10T08:17:49.061Z,1.000000
2019-01-10T08:20:19.479Z,1.200000
2019-01-10T08:22:49.936Z,1.200000
2019-01-10T08:25:20.314Z,0.900000
2019-01-10T08:27:50.657Z,0.900000
2019-01-10T08:30:21.117Z,0.900000
2019-01-10T08:32:51.471Z,1.000000
2019-01-10T08:35:21.821Z,1.000000
2019-01-10T08:37:52.188Z,1.300000
2019-01-10T08:40:22.649Z,1.300000
2019-01-10T08:42:53.600Z,0.900000
2019-01-10T08:45:24.062Z,0.900000
2019-01-10T08:47:54.629Z,0.700000
2019-01-10T08:50:25.109Z,0.700000
2019-01-10T08:52:55.650Z,0.800000
2019-01-10T08:55:26.143Z,0.800000
2019-01-10T08:57:56.534Z,0.800000
2019-01-10T09:00:26.983Z,0.800000
2019-01-10T09:02:57.336Z,1.200000
2019-01-10T09:05:27.700Z,1.200000
2019-01-10T09:07:58.060Z,1.400000
2019-01-10T09:10:28.447Z,1.400000
2019-01-10T09:12:59.013Z,0.800000
2019-01-10T09:15:34.374Z,0.800000
2019-01-10T09:18:05.134Z,1.100000
2019-01-10T09:20:35.473Z,1.100000
2019-01-10T09:23:05.839Z,1.000000
2019-01-10T09:25:36.203Z,1.000000
2019-01-10T09:28:06.566Z,1.300000
2019-01-10T09:30:38.677Z,1.300000
2019-01-10T09:33:09.186Z,1.100000
2019-01-10T09:35:39.558Z,1.100000
2019-01-10T09:38:09.918Z,1.100000
2019-01-10T09:40:40.183Z,1.100000
2019-01-10T09:43:10.648Z,1.200000
2019-01-10T09:45:43.466Z,1.200000
2019-01-10T09:48:13.967Z,0.900000
2019-01-10T09:50:44.441Z,0.900000
2019-01-10T09:53:14.713Z,1.200000
2019-01-10T09:55:44.976Z,1.200000
2019-01-10T09:58:15.552Z,0.900000
2019-01-10T10:00:48.188Z,0.900000
2019-01-10T10:03:18.496Z,1.200000
2019-01-10T10:05:48.835Z,1.200000
2019-01-10T10:08:19.166Z,1.000000
2019-01-10T10:10:49.554Z,1.000000
2019-01-10T10:13:19.906Z,0.700000
2019-01-10T10:15:52.717Z,0.700000
2019-01-10T10:18:23.365Z,1.300000
2019-01-10T10:20:53.716Z,1.300000
2019-01-10T10:23:26.926Z,1.000000
2019-01-10T10:25:57.556Z,1.000000
2019-01-10T10:28:27.924Z,0.900000
2019-01-10T10:30:58.318Z,0.900000
2019-01-10T10:33:29.325Z,0.900000
2019-01-10T10:35:59.683Z,0.900000
2019-01-10T10:38:30.049Z,1.500000
2019-01-10T10:41:00.325Z,1.500000
2019-01-10T10:43:30.698Z,1.100000
2019-01-10T10:46:01.704Z,1.100000
2019-01-10T10:48:32.354Z,1.100000
2019-01-10T10:51:02.645Z,1.100000
2019-01-10T10:53:33.218Z,0.800000
2019-01-10T10:56:03.518Z,0.800000
2019-01-10T10:58:33.810Z,0.800000
2019-01-10T11:01:04.093Z,0.800000
2019-01-10T11:03:34.410Z,0.700000
2019-01-10T11:06:04.706Z,0.700000
2019-01-10T11:08:35.000Z,0.800000
2019-01-10T11:11:05.424Z,0.800000
2019-01-10T11:13:35.901Z,0.800000
2019-01-10T11:16:10.790Z,0.800000
2019-01-10T11:18:41.286Z,1.300000
2019-01-10T11:21:16.578Z,1.300000
2019-01-10T11:23:46.902Z,0.900000
2019-01-10T11:26:17.274Z,0.900000
2019-01-10T11:28:47.571Z,1.200000
2019-01-10T11:31:17.883Z,1.200000
2019-01-10T11:33:48.186Z,1.000000
2019-01-10T11:36:18.512Z,1.000000
2019-01-10T11:38:48.835Z,1.300000
2019-01-10T11:41:19.143Z,1.300000
2019-01-10T11:43:49.445Z,1.100000
2019-01-10T11:46:20.106Z,1.100000
2019-01-10T11:48:50.513Z,0.900000
2019-01-10T11:51:20.843Z,0.900000
2019-01-10T11:53:51.141Z,1.400000
2019-01-10T11:56:21.506Z,1.400000
2019-01-10T11:58:51.883Z,13.500000
2019-01-10T12:01:22.308Z,13.500000
2019-01-10T12:03:52.678Z,13.300000
2019-01-10T12:06:23.143Z,13.300000
2019-01-10T12:08:53.163Z,5.300000
2019-01-10T12:11:23.487Z,5.300000
2019-01-10T12:13:53.719Z,5.100000
2019-01-10T12:16:28.569Z,5.100000
2019-01-10T12:18:59.660Z,6.200000
2019-01-10T12:21:30.143Z,6.200000
2019-01-10T12:24:00.459Z,3.500000
2019-01-10T12:26:30.823Z,3.500000
2019-01-10T12:29:01.195Z,1.600000
2019-01-10T12:31:31.519Z,1.600000
2019-01-10T12:34:01.734Z,3.600000
2019-01-10T12:36:32.061Z,3.600000
2019-01-10T12:39:03.571Z,2.800000
2019-01-10T12:41:39.050Z,2.800000
2019-01-10T12:44:09.259Z,3.200000
2019-01-10T12:46:39.590Z,3.500000
2019-01-10T12:49:11.614Z,3.500000
2019-01-10T12:51:42.216Z,2.100000
2019-01-10T12:54:12.605Z,2.100000
2019-01-10T12:56:42.941Z,1.800000
2019-01-10T12:59:13.231Z,1.800000
2019-01-10T13:01:43.550Z,1.900000
2019-01-10T13:04:13.877Z,1.900000
2019-01-10T13:06:44.078Z,1.900000
2019-01-10T13:09:14.392Z,1.900000
2019-01-10T13:11:44.816Z,2.300000
2019-01-10T13:14:15.315Z,2.300000
2019-01-10T13:16:47.016Z,1.800000
2019-01-10T13:19:17.553Z,1.800000
2019-01-10T13:21:48.044Z,1.100000
2019-01-10T13:24:18.472Z,1.100000
2019-01-10T13:26:48.784Z,1.300000
2019-01-10T13:29:19.127Z,1.300000
2019-01-10T13:31:49.444Z,1.000000
2019-01-10T13:34:19.918Z,1.000000
2019-01-10T13:36:50.265Z,1.200000
2019-01-10T13:39:20.688Z,1.200000
2019-01-10T13:41:51.017Z,1.100000
2019-01-10T13:44:21.528Z,1.100000
2019-01-10T13:46:55.711Z,1.100000
2019-01-10T13:49:26.686Z,1.100000
2019-01-10T13:51:57.040Z,0.700000
2019-01-10T13:54:27.342Z,0.700000
2019-01-10T13:56:57.652Z,0.700000
2019-01-10T13:59:27.990Z,0.700000
2019-01-10T14:01:58.513Z,0.800000
2019-01-10T14:04:28.894Z,0.800000
2019-01-10T14:06:59.188Z,0.800000
2019-01-10T14:09:29.531Z,0.800000
2019-01-10T14:11:59.846Z,0.800000
2019-01-10T14:14:30.119Z,0.800000
2019-01-10T14:17:01.804Z,0.700000
2019-01-10T14:19:32.431Z,0.700000
2019-01-10T14:22:02.838Z,0.800000
2019-01-10T14:24:33.223Z,0.800000
2019-01-10T14:27:03.548Z,0.800000
2019-01-10T14:29:33.912Z,0.800000
2019-01-10T14:32:04.205Z,0.700000
2019-01-10T14:34:34.636Z,0.700000
2019-01-10T14:37:05.011Z,0.500000
2019-01-10T14:39:35.210Z,0.500000
2019-01-10T14:42:05.516Z,1.000000
2019-01-10T14:44:35.808Z,1.000000
2019-01-10T14:47:07.738Z,0.700000
2019-01-10T14:49:38.231Z,0.700000
2019-01-10T14:52:13.562Z,0.700000
2019-01-10T14:54:43.851Z,0.700000
2019-01-10T14:57:14.310Z,5.100000
2019-01-10T14:59:44.664Z,5.100000
2019-01-10T15:02:15.074Z,1.600000
2019-01-10T15:04:45.701Z,1.600000
2019-01-10T15:07:21.272Z,2.600000
2019-01-10T15:09:56.548Z,2.600000
2019-01-10T15:12:26.798Z,2.800000
2019-01-10T15:14:57.246Z,2.800000
2019-01-10T15:17:27.501Z,2.400000
2019-01-10T15:19:57.932Z,2.400000
2019-01-10T15:22:28.274Z,2.100000
2019-01-10T15:24:58.666Z,2.100000
2019-01-10T15:27:29.361Z,2.500000
2019-01-10T15:29:59.762Z,2.500000
2019-01-10T15:32:30.036Z,2.200000
2019-01-10T15:35:05.338Z,2.200000
2019-01-10T15:37:35.674Z,1.900000
2019-01-10T15:40:05.941Z,1.900000
2019-01-10T15:42:36.436Z,1.600000
2019-01-10T15:45:06.816Z,1.600000
2019-01-10T15:47:37.203Z,1.900000
2019-01-10T15:50:07.575Z,1.900000
2019-01-10T15:52:37.860Z,1.900000
2019-01-10T15:55:08.183Z,1.900000
2019-01-10T15:57:38.527Z,1.500000
2019-01-10T16:00:08.920Z,1.500000
2019-01-10T16:02:39.296Z,1.500000
2019-01-10T16:05:09.690Z,1.500000
2019-01-10T16:07:40.051Z,1.400000
2019-01-10T16:10:15.453Z,1.400000
2019-01-10T16:12:45.809Z,1.100000
2019-01-10T16:15:16.114Z,1.100000
2019-01-10T16:17:46.791Z,1.400000
2019-01-10T16:20:17.242Z,1.400000
2019-01-10T16:22:47.564Z,1.100000
2019-01-10T16:25:18.095Z,1.100000
2019-01-10T16:27:48.663Z,1.400000
2019-01-10T16:30:19.012Z,1.400000
2019-01-10T16:32:49.658Z,1.200000
2019-01-10T16:35:19.996Z,1.200000
2019-01-10T16:37:50.289Z,1.500000
2019-01-10T16:40:20.743Z,1.500000
2019-01-10T16:42:51.055Z,1.300000
2019-01-10T16:45:21.416Z,1.300000
2019-01-10T16:47:51.824Z,1.100000
2019-01-10T16:50:27.197Z,1.100000
2019-01-10T16:52:57.540Z,1.300000
2019-01-10T16:55:27.939Z,1.300000
2019-01-10T16:57:58.275Z,1.300000
2019-01-10T17:00:28.702Z,1.300000
2019-01-10T17:02:59.085Z,1.300000
2019-01-10T17:05:29.508Z,1.200000
2019-01-10T17:07:59.732Z,1.200000
2019-01-10T17:10:30.009Z,1.100000
2019-01-10T17:13:00.364Z,1.100000
2019-01-10T17:15:30.729Z,1.200000
2019-01-10T17:18:01.103Z,1.200000
2019-01-10T17:20:31.721Z,0.900000
2019-01-10T17:23:07.176Z,0.900000
2019-01-10T17:25:37.557Z,1.600000
2019-01-10T17:28:07.842Z,1.600000
2019-01-10T17:30:38.306Z,1.200000
2019-01-10T17:33:08.549Z,1.200000
2019-01-10T17:35:38.932Z,1.500000
2019-01-10T17:38:09.326Z,1.500000
2019-01-10T17:40:39.716Z,1.200000
2019-01-10T17:43:10.066Z,1.200000
2019-01-10T17:45:40.331Z,1.300000
2019-01-10T17:48:10.657Z,1.300000
2019-01-10T17:50:40.930Z,1.100000
2019-01-10T17:53:11.209Z,1.100000
2019-01-10T17:55:41.470Z,1.400000
2019-01-10T17:58:12.560Z,1.400000
2019-01-10T18:00:48.236Z,1.600000
2019-01-10T18:03:24.001Z,1.600000
2019-01-10T18:05:54.295Z,2.200000
2019-01-10T18:08:34.730Z,2.200000
2019-01-10T18:11:04.985Z,2.000000
2019-01-10T18:13:35.342Z,2.000000
2019-01-10T18:16:05.788Z,2.100000
2019-01-10T18:18:36.073Z,2.100000
2019-01-10T18:21:06.458Z,1.900000
2019-01-10T18:23:36.893Z,1.900000
2019-01-10T18:26:07.294Z,2.000000
2019-01-10T18:28:37.604Z,2.000000
2019-01-10T18:31:07.969Z,2.200000
2019-01-10T18:33:38.451Z,2.200000
2019-01-10T18:36:08.868Z,3.000000
2019-01-10T18:38:39.273Z,3.000000
2019-01-10T18:41:09.654Z,2.500000
2019-01-10T18:43:40.010Z,2.500000
2019-01-10T18:46:10.362Z,2.200000
2019-01-10T18:48:40.811Z,2.200000
2019-01-10T18:51:11.111Z,3.500000
2019-01-10T18:53:41.470Z,3.500000
2019-01-10T18:56:13.924Z,2.500000
2019-01-10T18:58:49.318Z,2.500000
2019-01-10T19:01:19.651Z,2.600000
2019-01-10T19:03:52.059Z,2.600000
2019-01-10T19:06:22.436Z,2.000000
2019-01-10T19:08:52.812Z,2.000000
2019-01-10T19:11:23.165Z,3.500000
2019-01-10T19:13:53.561Z,3.500000
2019-01-10T19:16:23.919Z,3.500000
2019-01-10T19:18:54.277Z,3.500000
2019-01-10T19:21:24.663Z,3.400000
2019-01-10T19:23:55.224Z,3.400000
2019-01-10T19:26:25.663Z,3.400000
2019-01-10T19:28:56.038Z,3.400000
2019-01-10T19:31:26.402Z,2.700000
2019-01-10T19:33:56.763Z,2.700000
2019-01-10T19:36:27.279Z,2.800000
2019-01-10T19:38:57.807Z,2.800000
2019-01-10T19:41:28.192Z,2.800000
2019-01-10T19:43:58.522Z,2.800000
2019-01-10T19:46:28.871Z,3.100000
2019-01-10T19:48:59.233Z,3.100000
2019-01-10T19:51:29.687Z,3.000000
2019-01-10T19:54:00.073Z,3.000000
2019-01-10T19:56:30.451Z,3.800000
2019-01-10T19:59:00.907Z,3.800000
2019-01-10T20:01:31.650Z,4.500000
2019-01-10T20:04:07.087Z,4.500000
2019-01-10T20:06:37.716Z,3.400000
2019-01-10T20:09:08.084Z,3.400000
2019-01-10T20:11:38.441Z,3.300000
2019-01-10T20:14:13.790Z,3.300000
2019-01-10T20:16:44.140Z,3.600000
2019-01-10T20:19:14.482Z,3.600000
2019-01-10T20:21:44.993Z,3.900000
2019-01-10T20:24:15.392Z,3.900000
2019-01-10T20:26:45.764Z,3.300000
2019-01-10T20:29:16.126Z,3.300000
2019-01-10T20:31:46.531Z,2.900000
2019-01-10T20:34:16.980Z,2.900000
2019-01-10T20:36:47.369Z,3.700000
2019-01-10T20:39:17.725Z,3.700000
2019-01-10T20:41:48.082Z,4.100000
2019-01-10T20:44:18.524Z,4.100000
2019-01-10T20:46:48.968Z,4.100000
2019-01-10T20:49:19.254Z,4.400000
2019-01-10T20:51:49.599Z,4.400000
2019-01-10T20:54:19.960Z,4.400000
2019-01-10T20:56:50.293Z,4.400000
2019-01-10T20:59:20.577Z,3.900000
2019-01-10T21:01:51.014Z,3.900000
2019-01-10T21:04:21.366Z,5.000000
2019-01-10T21:06:51.709Z,5.000000
2019-01-10T21:09:22.043Z,4.000000
2019-01-10T21:11:52.414Z,4.000000
2019-01-10T21:14:22.787Z,3.700000
2019-01-10T21:16:53.090Z,3.700000
2019-01-10T21:19:23.366Z,3.800000
2019-01-10T21:21:53.713Z,3.800000
2019-01-10T21:24:24.076Z,3.400000
2019-01-10T21:26:54.460Z,3.400000
2019-01-10T21:29:24.743Z,4.400000
2019-01-10T21:31:55.091Z,4.400000
2019-01-10T21:34:25.419Z,3.600000
2019-01-10T21:36:55.797Z,3.600000
2019-01-10T21:39:26.119Z,4.400000
2019-01-10T21:41:56.459Z,4.400000
2019-01-10T21:44:26.908Z,4.900000
2019-01-10T21:46:57.412Z,4.900000
2019-01-10T21:49:27.726Z,5.300000
2019-01-10T21:51:58.099Z,5.300000
2019-01-10T21:54:28.476Z,5.900000
2019-01-10T21:56:58.820Z,5.900000
2019-01-10T21:59:29.174Z,5.400000
2019-01-10T22:01:59.556Z,5.400000
2019-01-10T22:04:30.105Z,5.400000
2019-01-10T22:07:00.455Z,5.400000
2019-01-10T22:09:30.911Z,5.900000
2019-01-10T22:12:01.259Z,5.900000
2019-01-10T22:14:31.635Z,5.000000
2019-01-10T22:17:02.004Z,5.000000
2019-01-10T22:19:32.359Z,5.900000
2019-01-10T22:22:02.688Z,5.900000
2019-01-10T22:24:32.986Z,6.300000
2019-01-10T22:27:03.302Z,6.300000
2019-01-10T22:29:33.827Z,5.700000
2019-01-10T22:32:04.191Z,5.700000
2019-01-10T22:34:34.784Z,5.600000
2019-01-10T22:37:05.124Z,5.600000
2019-01-10T22:39:35.469Z,5.700000
2019-01-10T22:42:05.876Z,5.700000
2019-01-10T22:44:36.272Z,5.900000
2019-01-10T22:47:06.693Z,5.900000
2019-01-10T22:49:36.973Z,5.400000
2019-01-10T22:52:07.325Z,5.400000
2019-01-10T22:54:37.698Z,5.600000
2019-01-10T22:57:08.045Z,5.600000
2019-01-10T22:59:38.506Z,6.200000
2019-01-10T23:02:08.942Z,6.200000
2019-01-10T23:04:39.291Z,6.000000
2019-01-10T23:07:09.630Z,6.000000
2019-01-10T23:09:40.022Z,6.100000
2019-01-10T23:12:10.347Z,6.100000
2019-01-10T23:14:40.661Z,8.100000
2019-01-10T23:17:10.976Z,8.100000
2019-01-10T23:19:41.440Z,6.700000
2019-01-10T23:22:12.890Z,6.700000
2019-01-10T23:24:43.203Z,6.600000
2019-01-10T23:27:13.725Z,6.600000
2019-01-10T23:29:44.265Z,7.300000
2019-01-10T23:32:14.512Z,7.300000
2019-01-10T23:34:44.883Z,6.400000
2019-01-10T23:37:15.263Z,6.400000
2019-01-10T23:39:45.515Z,7.500000
2019-01-10T23:42:15.935Z,7.500000
2019-01-10T23:44:46.266Z,6.300000
2019-01-10T23:47:16.632Z,6.300000
2019-01-10T23:49:46.959Z,7.000000
2019-01-10T23:52:17.338Z,7.000000
2019-01-10T23:54:47.777Z,6.400000
2019-01-10T23:57:17.990Z,6.400000
2019-01-10T23:59:48.322Z,8.200000
